sensor_id;sensor_type;location;lat;lon;timestamp;pressure;altitude;pressure_sealevel;temperature;humidity
34370;BME280;20635;55.812;37.560;2023-02-21T00:01:39;97089.03;;;23.23;19.44
34370;BME280;20635;55.812;37.560;2023-02-21T00:04:23;97087.50;;;23.26;19.42
34370;BME280;20635;55.812;37.560;2023-02-21T00:07:07;97091.44;;;23.25;19.11
34370;BME280;20635;55.812;37.560;2023-02-21T00:09:52;97091.09;;;23.26;19.16
34370;BME280;20635;55.812;37.560;2023-02-21T00:12:36;97086.31;;;23.27;19.40
34370;BME280;20635;55.812;37.560;2023-02-21T00:15:21;97086.31;;;23.27;19.44
34370;BME280;20635;55.812;37.560;2023-02-21T00:18:05;97077.91;;;23.27;19.37
34370;BME280;20635;55.812;37.560;2023-02-21T00:20:49;97073.13;;;23.27;19.45
34370;BME280;20635;55.812;37.560;2023-02-21T00:23:35;97069.53;;;23.27;19.24
34370;BME280;20635;55.812;37.560;2023-02-21T00:26:20;97065.56;;;23.28;19.49
34370;BME280;20635;55.812;37.560;2023-02-21T00:29:05;97069.94;;;23.29;19.54
34370;BME280;20635;55.812;37.560;2023-02-21T00:31:49;97069.94;;;23.29;19.06
34370;BME280;20635;55.812;37.560;2023-02-21T00:34:35;97069.94;;;23.29;19.38
34370;BME280;20635;55.812;37.560;2023-02-21T00:37:19;97066.34;;;23.28;19.05
34370;BME280;20635;55.812;37.560;2023-02-21T00:40:04;97069.94;;;23.29;19.45
34370;BME280;20635;55.812;37.560;2023-02-21T00:42:48;97061.22;;;23.31;19.20
34370;BME280;20635;55.812;37.560;2023-02-21T00:45:33;97060.41;;;23.30;19.37
34370;BME280;20635;55.812;37.560;2023-02-21T00:48:21;97066.00;;;23.30;19.37
34370;BME280;20635;55.812;37.560;2023-02-21T00:51:05;97056.78;;;23.29;19.40
34370;BME280;20635;55.812;37.560;2023-02-21T00:53:49;97059.22;;;23.31;19.48
34370;BME280;20635;55.812;37.560;2023-02-21T00:56:34;97049.22;;;23.30;19.27
34370;BME280;20635;55.812;37.560;2023-02-21T00:59:19;97048.03;;;23.31;19.23
34370;BME280;20635;55.812;37.560;2023-02-21T01:02:03;97048.03;;;23.31;19.41
34370;BME280;20635;55.812;37.560;2023-02-21T01:04:49;97048.03;;;23.31;19.39
34370;BME280;20635;55.812;37.560;2023-02-21T01:07:35;97047.66;;;23.33;18.98
34370;BME280;20635;55.812;37.560;2023-02-21T01:10:19;97037.66;;;23.32;19.34
34370;BME280;20635;55.812;37.560;2023-02-21T01:13:05;97039.25;;;23.33;19.25
34370;BME280;20635;55.812;37.560;2023-02-21T01:15:50;97028.09;;;23.33;19.32
34370;BME280;20635;55.812;37.560;2023-02-21T01:18:34;97030.09;;;23.32;18.94
34370;BME280;20635;55.812;37.560;2023-02-21T01:21:18;97021.69;;;23.32;18.98
34370;BME280;20635;55.812;37.560;2023-02-21T01:24:03;97019.72;;;23.33;18.83
34370;BME280;20635;55.812;37.560;2023-02-21T01:26:49;97018.91;;;23.32;18.79
34370;BME280;20635;55.812;37.560;2023-02-21T01:29:33;97030.88;;;23.33;19.22
34370;BME280;20635;55.812;37.560;2023-02-21T01:32:17;97030.09;;;23.32;19.23
34370;BME280;20635;55.812;37.560;2023-02-21T01:35:02;97023.31;;;23.33;18.93
34370;BME280;20635;55.812;37.560;2023-02-21T01:37:46;97021.69;;;23.32;19.05
34370;BME280;20635;55.812;37.560;2023-02-21T01:40:31;97021.69;;;23.32;18.79
34370;BME280;20635;55.812;37.560;2023-02-21T01:43:22;97024.91;;;23.34;18.89
34370;BME280;20635;55.812;37.560;2023-02-21T01:46:11;97020.50;;;23.33;19.08
34370;BME280;20635;55.812;37.560;2023-02-21T01:48:58;97032.47;;;23.34;18.87
34370;BME280;20635;55.812;37.560;2023-02-21T01:51:44;97021.69;;;23.32;18.71
34370;BME280;20635;55.812;37.560;2023-02-21T01:54:36;97025.72;;;23.35;18.59
34370;BME280;20635;55.812;37.560;2023-02-21T01:57:21;97016.91;;;23.33;18.97
34370;BME280;20635;55.812;37.560;2023-02-21T02:00:09;97021.31;;;23.34;19.02
34370;BME280;20635;55.812;37.560;2023-02-21T02:03:04;97027.34;;;23.36;18.57
34370;BME280;20635;55.812;37.560;2023-02-21T02:05:58;97020.50;;;23.33;18.83
34370;BME280;20635;55.812;37.560;2023-02-21T02:08:43;97024.09;;;23.34;18.76
34370;BME280;20635;55.812;37.560;2023-02-21T02:14:39;97018.16;;;23.35;18.87
34370;BME280;20635;55.812;37.560;2023-02-21T02:26:09;97014.56;;;23.38;18.56
34370;BME280;20635;55.812;37.560;2023-02-21T02:38:49;97024.59;;;23.39;18.40
34370;BME280;20635;55.812;37.560;2023-02-21T02:41:10;97017.75;;;23.37;18.47
34370;BME280;20635;55.812;37.560;2023-02-21T02:43:46;97024.59;;;23.43;18.86
34370;BME280;20635;55.812;37.560;2023-02-21T02:46:28;97019.41;;;23.41;18.85
34370;BME280;20635;55.812;37.560;2023-02-21T02:49:09;97019.00;;;23.39;18.70
34370;BME280;20635;55.812;37.560;2023-02-21T02:51:37;97008.56;;;23.36;18.59
34370;BME280;20635;55.812;37.560;2023-02-21T02:54:05;97013.78;;;23.38;18.45
34370;BME280;20635;55.812;37.560;2023-02-21T02:56:31;97013.78;;;23.38;18.64
34370;BME280;20635;55.812;37.560;2023-02-21T03:01:48;97017.81;;;23.40;18.59
34370;BME280;20635;55.812;37.560;2023-02-21T03:04:44;97011.81;;;23.42;18.35
34370;BME280;20635;55.812;37.560;2023-02-21T03:07:42;97012.22;;;23.40;18.36
34370;BME280;20635;55.812;37.560;2023-02-21T03:10:27;97011.03;;;23.41;18.76
34370;BME280;20635;55.812;37.560;2023-02-21T03:13:13;97009.41;;;23.40;18.71
34370;BME280;20635;55.812;37.560;2023-02-21T03:15:48;97013.81;;;23.41;18.51
34370;BME280;20635;55.812;37.560;2023-02-21T03:21:03;97016.59;;;23.41;18.45
34370;BME280;20635;55.812;37.560;2023-02-21T03:23:32;97013.00;;;23.41;18.41
34370;BME280;20635;55.812;37.560;2023-02-21T03:26:02;97009.41;;;23.40;18.63
34370;BME280;20635;55.812;37.560;2023-02-21T03:28:30;97005.44;;;23.41;18.55
34370;BME280;20635;55.812;37.560;2023-02-21T03:30:58;97007.03;;;23.42;18.26
34370;BME280;20635;55.812;37.560;2023-02-21T03:33:25;97011.81;;;23.42;18.47
34370;BME280;20635;55.812;37.560;2023-02-21T03:35:51;97011.81;;;23.42;18.35
34370;BME280;20635;55.812;37.560;2023-02-21T03:38:17;97002.63;;;23.41;18.52
34370;BME280;20635;55.812;37.560;2023-02-21T03:40:44;97005.44;;;23.41;18.28
34370;BME280;20635;55.812;37.560;2023-02-21T03:43:10;97007.03;;;23.42;18.22
34370;BME280;20635;55.812;37.560;2023-02-21T03:45:44;97003.44;;;23.42;18.22
34370;BME280;20635;55.812;37.560;2023-02-21T03:48:16;97005.44;;;23.41;18.22
34370;BME280;20635;55.812;37.560;2023-02-21T03:50:42;97003.44;;;23.42;18.02
34370;BME280;20635;55.812;37.560;2023-02-21T03:53:09;97007.84;;;23.43;18.41
34370;BME280;20635;55.812;37.560;2023-02-21T03:55:36;97001.44;;;23.42;18.09
34370;BME280;20635;55.812;37.560;2023-02-21T03:58:06;97001.44;;;23.42;18.26
34370;BME280;20635;55.812;37.560;2023-02-21T04:00:34;97001.44;;;23.42;18.37
34370;BME280;20635;55.812;37.560;2023-02-21T04:03:01;97007.84;;;23.43;18.14
34370;BME280;20635;55.812;37.560;2023-02-21T04:05:38;97006.66;;;23.44;17.99
34370;BME280;20635;55.812;37.560;2023-02-21T04:08:04;97005.03;;;23.43;17.91
34370;BME280;20635;55.812;37.560;2023-02-21T04:10:31;97002.25;;;23.43;18.40
34370;BME280;20635;55.812;37.560;2023-02-21T04:12:57;97000.25;;;23.43;17.95
34370;BME280;20635;55.812;37.560;2023-02-21T04:15:24;97003.88;;;23.44;18.25
34370;BME280;20635;55.812;37.560;2023-02-21T04:17:50;97007.47;;;23.44;18.30
34370;BME280;20635;55.812;37.560;2023-02-21T04:20:16;97003.88;;;23.44;18.25
34370;BME280;20635;55.812;37.560;2023-02-21T04:22:50;97001.44;;;23.42;18.16
34370;BME280;20635;55.812;37.560;2023-02-21T04:25:17;97010.25;;;23.44;18.01
34370;BME280;20635;55.812;37.560;2023-02-21T04:27:49;97011.44;;;23.43;18.14
34370;BME280;20635;55.812;37.560;2023-02-21T04:30:16;97015.06;;;23.44;18.09
34370;BME280;20635;55.812;37.560;2023-02-21T04:32:42;97019.81;;;23.43;17.96
34370;BME280;20635;55.812;37.560;2023-02-21T04:35:12;97014.22;;;23.43;17.79
34370;BME280;20635;55.812;37.560;2023-02-21T04:37:38;97014.22;;;23.43;18.22
34370;BME280;20635;55.812;37.560;2023-02-21T04:40:04;97016.22;;;23.43;17.83
34370;BME280;20635;55.812;37.560;2023-02-21T04:42:33;97018.22;;;23.42;18.05
34370;BME280;20635;55.812;37.560;2023-02-21T04:44:59;97019.00;;;23.43;18.04
34370;BME280;20635;55.812;37.560;2023-02-21T04:47:25;97021.81;;;23.43;17.85
34370;BME280;20635;55.812;37.560;2023-02-21T04:49:50;97025.41;;;23.43;17.90
34370;BME280;20635;55.812;37.560;2023-02-21T04:52:17;97026.22;;;23.44;17.81
34370;BME280;20635;55.812;37.560;2023-02-21T04:54:47;97026.59;;;23.42;17.93
34370;BME280;20635;55.812;37.560;2023-02-21T04:57:15;97036.56;;;23.43;18.08
34370;BME280;20635;55.812;37.560;2023-02-21T04:59:41;97028.19;;;23.43;18.11
34370;BME280;20635;55.812;37.560;2023-02-21T05:02:07;97041.38;;;23.43;18.16
34370;BME280;20635;55.812;37.560;2023-02-21T05:04:37;97046.16;;;23.42;17.84
34370;BME280;20635;55.812;37.560;2023-02-21T05:07:03;97040.56;;;23.42;18.15
34370;BME280;20635;55.812;37.560;2023-02-21T05:09:29;97034.19;;;23.42;17.75
34370;BME280;20635;55.812;37.560;2023-02-21T05:11:56;97032.19;;;23.42;18.22
34370;BME280;20635;55.812;37.560;2023-02-21T05:14:21;97041.75;;;23.41;17.95
34370;BME280;20635;55.812;37.560;2023-02-21T05:16:47;97040.97;;;23.41;18.02
34370;BME280;20635;55.812;37.560;2023-02-21T05:19:18;97037.78;;;23.42;17.67
34370;BME280;20635;55.812;37.560;2023-02-21T05:22:02;97038.22;;;23.44;18.22
34370;BME280;20635;55.812;37.560;2023-02-21T05:24:29;97031.38;;;23.42;18.05
34370;BME280;20635;55.812;37.560;2023-02-21T05:26:56;97034.19;;;23.42;17.83
34370;BME280;20635;55.812;37.560;2023-02-21T05:29:22;97039.34;;;23.40;17.88
34370;BME280;20635;55.812;37.560;2023-02-21T05:31:48;97042.94;;;23.40;18.07
34370;BME280;20635;55.812;37.560;2023-02-21T05:34:15;97042.94;;;23.40;17.69
34370;BME280;20635;55.812;37.560;2023-02-21T05:36:42;97042.94;;;23.40;17.94
34370;BME280;20635;55.812;37.560;2023-02-21T05:39:08;97051.34;;;23.40;17.56
34370;BME280;20635;55.812;37.560;2023-02-21T05:41:34;97044.16;;;23.39;17.73
34370;BME280;20635;55.812;37.560;2023-02-21T05:44:01;97041.34;;;23.39;17.99
34370;BME280;20635;55.812;37.560;2023-02-21T05:46:30;97040.53;;;23.39;17.90
34370;BME280;20635;55.812;37.560;2023-02-21T05:48:58;97050.91;;;23.38;17.87
34370;BME280;20635;55.812;37.560;2023-02-21T05:51:24;97047.31;;;23.38;17.81
34370;BME280;20635;55.812;37.560;2023-02-21T05:53:52;97043.72;;;23.37;17.78
34370;BME280;20635;55.812;37.560;2023-02-21T05:56:19;97046.50;;;23.37;17.90
34370;BME280;20635;55.812;37.560;2023-02-21T05:58:46;97049.28;;;23.37;17.59
34370;BME280;20635;55.812;37.560;2023-02-21T06:01:12;97042.50;;;23.35;17.73
34370;BME280;20635;55.812;37.560;2023-02-21T06:03:38;97045.28;;;23.35;17.52
34370;BME280;20635;55.812;37.560;2023-02-21T06:06:04;97041.66;;;23.34;17.49
34370;BME280;20635;55.812;37.560;2023-02-21T06:08:30;97047.66;;;23.33;17.69
34370;BME280;20635;55.812;37.560;2023-02-21T06:10:56;97047.25;;;23.31;17.79
34370;BME280;20635;55.812;37.560;2023-02-21T06:13:22;97050.84;;;23.31;17.93
34370;BME280;20635;55.812;37.560;2023-02-21T06:15:48;97046.78;;;23.28;17.67
34370;BME280;20635;55.812;37.560;2023-02-21T06:18:15;97048.78;;;23.28;17.95
34370;BME280;20635;55.812;37.560;2023-02-21T06:20:42;97051.19;;;23.26;17.77
34370;BME280;20635;55.812;37.560;2023-02-21T06:23:08;97046.75;;;23.25;17.90
34370;BME280;20635;55.812;37.560;2023-02-21T06:25:34;97055.53;;;23.23;17.72
34370;BME280;20635;55.812;37.560;2023-02-21T06:28:03;97046.72;;;23.21;17.67
34370;BME280;20635;55.812;37.560;2023-02-21T06:30:29;97047.09;;;23.20;17.54
34370;BME280;20635;55.812;37.560;2023-02-21T06:32:55;97055.06;;;23.18;17.81
34370;BME280;20635;55.812;37.560;2023-02-21T06:35:21;97053.06;;;23.18;17.68
34370;BME280;20635;55.812;37.560;2023-02-21T06:37:46;97044.25;;;23.16;17.72
34370;BME280;20635;55.812;37.560;2023-02-21T06:40:12;97053.47;;;23.17;17.69
34370;BME280;20635;55.812;37.560;2023-02-21T06:42:38;97041.84;;;23.15;17.63
34370;BME280;20635;55.812;37.560;2023-02-21T06:45:04;97055.00;;;23.14;17.67
34370;BME280;20635;55.812;37.560;2023-02-21T06:47:31;97048.63;;;23.14;17.94
34370;BME280;20635;55.812;37.560;2023-02-21T06:49:56;97047.38;;;23.11;17.78
34370;BME280;20635;55.812;37.560;2023-02-21T06:52:22;97049.38;;;23.11;18.01
34370;BME280;20635;55.812;37.560;2023-02-21T06:54:49;97058.56;;;23.11;17.70
34370;BME280;20635;55.812;37.560;2023-02-21T06:57:15;97058.94;;;23.10;17.91
34370;BME280;20635;55.812;37.560;2023-02-21T06:59:41;97059.34;;;23.08;17.62
34370;BME280;20635;55.812;37.560;2023-02-21T07:02:14;97055.34;;;23.09;17.60
34370;BME280;20635;55.812;37.560;2023-02-21T07:04:43;97058.53;;;23.08;17.48
34370;BME280;20635;55.812;37.560;2023-02-21T07:07:09;97052.50;;;23.06;17.95
34370;BME280;20635;55.812;37.560;2023-02-21T07:09:35;97055.28;;;23.06;17.76
34370;BME280;20635;55.812;37.560;2023-02-21T07:12:01;97050.50;;;23.06;17.58
34370;BME280;20635;55.812;37.560;2023-02-21T07:14:27;97056.09;;;23.06;17.54
34370;BME280;20635;55.812;37.560;2023-02-21T07:16:53;97062.06;;;23.04;17.55
34370;BME280;20635;55.812;37.560;2023-02-21T07:19:19;97058.09;;;23.06;17.76
34370;BME280;20635;55.812;37.560;2023-02-21T07:21:45;97050.91;;;23.04;17.61
34370;BME280;20635;55.812;37.560;2023-02-21T07:24:12;97062.88;;;23.05;17.74
34370;BME280;20635;55.812;37.560;2023-02-21T07:26:38;97063.25;;;23.03;17.76
34370;BME280;20635;55.812;37.560;2023-02-21T07:29:04;97065.25;;;23.03;17.67
34370;BME280;20635;55.812;37.560;2023-02-21T07:31:30;97067.66;;;23.04;17.44
34370;BME280;20635;55.812;37.560;2023-02-21T07:33:56;97068.84;;;23.03;17.44
34370;BME280;20635;55.812;37.560;2023-02-21T07:36:22;97059.66;;;23.03;17.56
34370;BME280;20635;55.812;37.560;2023-02-21T07:38:48;97069.66;;;23.04;17.45
34370;BME280;20635;55.812;37.560;2023-02-21T07:41:14;97070.44;;;23.04;17.73
34370;BME280;20635;55.812;37.560;2023-02-21T07:43:41;97074.84;;;23.06;17.65
34370;BME280;20635;55.812;37.560;2023-02-21T07:46:11;97072.84;;;23.06;17.52
34370;BME280;20635;55.812;37.560;2023-02-21T07:48:37;97073.66;;;23.07;17.59
34370;BME280;20635;55.812;37.560;2023-02-21T07:51:04;97070.88;;;23.07;17.58
34370;BME280;20635;55.812;37.560;2023-02-21T07:53:31;97074.47;;;23.07;17.48
34370;BME280;20635;55.812;37.560;2023-02-21T07:55:57;97076.09;;;23.08;17.59
34370;BME280;20635;55.812;37.560;2023-02-21T07:58:23;97076.91;;;23.09;17.14
34370;BME280;20635;55.812;37.560;2023-02-21T08:00:50;97077.69;;;23.09;17.20
34370;BME280;20635;55.812;37.560;2023-02-21T08:03:17;97080.47;;;23.09;17.47
34370;BME280;20635;55.812;37.560;2023-02-21T08:05:43;97076.50;;;23.10;17.34
34370;BME280;20635;55.812;37.560;2023-02-21T08:08:10;97085.69;;;23.11;17.55
34370;BME280;20635;55.812;37.560;2023-02-21T08:10:36;97080.91;;;23.11;17.39
34370;BME280;20635;55.812;37.560;2023-02-21T08:13:03;97078.91;;;23.12;17.14
34370;BME280;20635;55.812;37.560;2023-02-21T08:15:29;97084.13;;;23.13;17.24
34370;BME280;20635;55.812;37.560;2023-02-21T08:17:55;97080.16;;;23.14;17.62
34370;BME280;20635;55.812;37.560;2023-02-21T08:20:21;97072.97;;;23.13;17.39
34370;BME280;20635;55.812;37.560;2023-02-21T08:22:47;97076.97;;;23.16;17.25
34370;BME280;20635;55.812;37.560;2023-02-21T08:25:14;97083.34;;;23.16;17.20
34370;BME280;20635;55.812;37.560;2023-02-21T08:27:41;97077.78;;;23.16;17.36
34370;BME280;20635;55.812;37.560;2023-02-21T08:30:10;97079.41;;;23.17;17.58
34370;BME280;20635;55.812;37.560;2023-02-21T08:32:36;97078.22;;;23.18;17.48
34370;BME280;20635;55.812;37.560;2023-02-21T08:35:03;97081.81;;;23.19;17.55
34370;BME280;20635;55.812;37.560;2023-02-21T08:37:31;97077.47;;;23.21;17.46
34370;BME280;20635;55.812;37.560;2023-02-21T08:39:58;97078.25;;;23.22;17.22
34370;BME280;20635;55.812;37.560;2023-02-21T08:42:24;97081.84;;;23.22;17.30
34370;BME280;20635;55.812;37.560;2023-02-21T08:44:51;97082.66;;;23.23;17.38
34370;BME280;20635;55.812;37.560;2023-02-21T08:47:17;97085.84;;;23.25;17.34
34370;BME280;20635;55.812;37.560;2023-02-21T08:49:44;97090.28;;;23.26;17.28
34370;BME280;20635;55.812;37.560;2023-02-21T08:52:15;97085.50;;;23.26;17.52
34370;BME280;20635;55.812;37.560;2023-02-21T08:54:43;97087.91;;;23.28;17.19
34370;BME280;20635;55.812;37.560;2023-02-21T08:57:10;97086.72;;;23.29;17.49
34370;BME280;20635;55.812;37.560;2023-02-21T08:59:39;97089.16;;;23.31;17.40
34370;BME280;20635;55.812;37.560;2023-02-21T09:02:22;97090.00;;;23.35;17.37
34370;BME280;20635;55.812;37.560;2023-02-21T09:04:52;97084.78;;;23.33;17.27
34370;BME280;20635;55.812;37.560;2023-02-21T09:07:20;97090.00;;;23.35;17.43
34370;BME280;20635;55.812;37.560;2023-02-21T09:09:46;97086.00;;;23.36;17.58
34370;BME280;20635;55.812;37.560;2023-02-21T09:12:12;97092.00;;;23.38;17.37
34370;BME280;20635;55.812;37.560;2023-02-21T09:14:40;97095.59;;;23.38;17.55
34370;BME280;20635;55.812;37.560;2023-02-21T09:17:11;97088.47;;;23.41;17.57
34370;BME280;20635;55.812;37.560;2023-02-21T09:19:38;97096.84;;;23.41;17.50
34370;BME280;20635;55.812;37.560;2023-02-21T09:22:06;97092.88;;;23.42;17.44
34370;BME280;20635;55.812;37.560;2023-02-21T09:24:32;97093.66;;;23.42;17.11
34370;BME280;20635;55.812;37.560;2023-02-21T09:26:59;97093.31;;;23.44;17.12
34370;BME280;20635;55.812;37.560;2023-02-21T09:29:32;97093.72;;;23.46;17.24
34370;BME280;20635;55.812;37.560;2023-02-21T09:31:59;97083.34;;;23.46;17.51
34370;BME280;20635;55.812;37.560;2023-02-21T09:34:26;97088.53;;;23.48;17.15
34370;BME280;20635;55.812;37.560;2023-02-21T09:36:52;97084.56;;;23.49;17.40
34370;BME280;20635;55.812;37.560;2023-02-21T09:39:22;97092.56;;;23.50;17.20
34370;BME280;20635;55.812;37.560;2023-02-21T09:41:48;97088.22;;;23.53;17.53
34370;BME280;20635;55.812;37.560;2023-02-21T09:44:19;97096.22;;;23.54;17.26
34370;BME280;20635;55.812;37.560;2023-02-21T09:46:52;97089.03;;;23.57;17.38
34370;BME280;20635;55.812;37.560;2023-02-21T09:49:23;97090.66;;;23.58;17.19
34370;BME280;20635;55.812;37.560;2023-02-21T09:51:50;97096.66;;;23.60;17.31
34370;BME280;20635;55.812;37.560;2023-02-21T09:54:38;97095.53;;;23.65;17.33
34370;BME280;20635;55.812;37.560;2023-02-21T09:57:09;97088.31;;;23.64;17.40
34370;BME280;20635;55.812;37.560;2023-02-21T09:59:36;97094.34;;;23.66;17.09
34370;BME280;20635;55.812;37.560;2023-02-21T10:07:48;97086.06;;;23.73;17.09
34370;BME280;20635;55.812;37.560;2023-02-21T10:10:30;97093.25;;;23.74;17.45
34370;BME280;20635;55.812;37.560;2023-02-21T10:13:01;97088.47;;;23.74;17.38
34370;BME280;20635;55.812;37.560;2023-02-21T10:15:57;97088.94;;;23.80;17.18
34370;BME280;20635;55.812;37.560;2023-02-21T10:21:11;97095.34;;;23.84;17.26
34370;BME280;20635;55.812;37.560;2023-02-21T10:23:57;97106.97;;;23.86;17.57
34370;BME280;20635;55.812;37.560;2023-02-21T10:26:34;97102.19;;;23.87;17.46
34370;BME280;20635;55.812;37.560;2023-02-21T10:29:06;97105.78;;;23.87;17.28
34370;BME280;20635;55.812;37.560;2023-02-21T10:31:38;97110.19;;;23.88;17.47
34370;BME280;20635;55.812;37.560;2023-02-21T10:34:17;97110.22;;;23.92;17.19
34370;BME280;20635;55.812;37.560;2023-02-21T10:36:46;97119.81;;;23.91;17.17
34370;BME280;20635;55.812;37.560;2023-02-21T10:39:18;97111.47;;;23.94;17.34
34370;BME280;20635;55.812;37.560;2023-02-21T10:41:45;97128.22;;;23.94;17.13
34370;BME280;20635;55.812;37.560;2023-02-21T10:44:17;97130.25;;;23.97;17.08
34370;BME280;20635;55.812;37.560;2023-02-21T10:46:53;97121.09;;;24.00;17.15
34370;BME280;20635;55.812;37.560;2023-02-21T10:52:13;97135.53;;;24.06;17.32
34370;BME280;20635;55.812;37.560;2023-02-21T10:54:39;97132.72;;;24.06;17.27
34370;BME280;20635;55.812;37.560;2023-02-21T10:57:10;97127.59;;;24.12;17.34
34370;BME280;20635;55.812;37.560;2023-02-21T10:59:42;97141.22;;;24.13;17.08
34370;BME280;20635;55.812;37.560;2023-02-21T11:02:32;97142.47;;;24.19;17.34
34370;BME280;20635;55.812;37.560;2023-02-21T11:05:08;97149.69;;;24.24;17.28
34370;BME280;20635;55.812;37.560;2023-02-21T11:07:36;97143.69;;;24.22;17.09
34370;BME280;20635;55.812;37.560;2023-02-21T11:10:29;97157.34;;;24.27;17.45
34370;BME280;20635;55.812;37.560;2023-02-21T11:13:06;97154.94;;;24.29;17.18
34370;BME280;20635;55.812;37.560;2023-02-21T11:15:33;97159.72;;;24.28;17.17
34370;BME280;20635;55.812;37.560;2023-02-21T11:18:23;97159.00;;;24.35;17.39
34370;BME280;20635;55.812;37.560;2023-02-21T11:20:50;97155.41;;;24.35;17.14
34370;BME280;20635;55.812;37.560;2023-02-21T11:26:13;97157.88;;;24.40;17.36
34370;BME280;20635;55.812;37.560;2023-02-21T11:31:15;97162.72;;;24.46;17.52
34370;BME280;20635;55.812;37.560;2023-02-21T11:34:03;97160.38;;;24.52;17.15
34370;BME280;20635;55.812;37.560;2023-02-21T11:36:36;97174.75;;;24.50;17.41
34370;BME280;20635;55.812;37.560;2023-02-21T11:39:13;97168.78;;;24.52;17.29
34370;BME280;20635;55.812;37.560;2023-02-21T11:41:59;97183.59;;;24.56;17.03
34370;BME280;20635;55.812;37.560;2023-02-21T11:47:22;97175.63;;;24.58;17.11
34370;BME280;20635;55.812;37.560;2023-02-21T11:50:14;97184.44;;;24.60;17.13
34370;BME280;20635;55.812;37.560;2023-02-21T11:52:48;97184.84;;;24.59;17.27
34370;BME280;20635;55.812;37.560;2023-02-21T11:55:19;97184.84;;;24.59;16.96
34370;BME280;20635;55.812;37.560;2023-02-21T12:03:57;97194.84;;;24.60;17.22
34370;BME280;20635;55.812;37.560;2023-02-21T12:22:21;97205.63;;;24.61;17.02
34370;BME280;20635;55.812;37.560;2023-02-21T12:28:06;97226.09;;;24.65;17.10
34370;BME280;20635;55.812;37.560;2023-02-21T12:36:14;97222.91;;;24.67;16.97
34370;BME280;20635;55.812;37.560;2023-02-21T12:38:57;97227.31;;;24.68;17.15
34370;BME280;20635;55.812;37.560;2023-02-21T12:44:13;97238.56;;;24.71;17.04
34370;BME280;20635;55.812;37.560;2023-02-21T12:46:43;97249.31;;;24.69;16.99
34370;BME280;20635;55.812;37.560;2023-02-21T12:49:17;97247.31;;;24.70;17.00
34370;BME280;20635;55.812;37.560;2023-02-21T12:54:41;97259.75;;;24.72;16.98
34370;BME280;20635;55.812;37.560;2023-02-21T12:57:17;97265.38;;;24.72;17.14
34370;BME280;20635;55.812;37.560;2023-02-21T13:04:59;97278.13;;;24.70;17.15
34370;BME280;20635;55.812;37.560;2023-02-21T13:07:51;97283.38;;;24.71;16.92
34370;BME280;20635;55.812;37.560;2023-02-21T13:10:23;97286.53;;;24.70;17.09
34370;BME280;20635;55.812;37.560;2023-02-21T13:13:01;97286.97;;;24.72;17.11
34370;BME280;20635;55.812;37.560;2023-02-21T13:15:30;97293.31;;;24.69;17.04
34370;BME280;20635;55.812;37.560;2023-02-21T13:18:00;97284.91;;;24.69;16.84
34370;BME280;20635;55.812;37.560;2023-02-21T13:20:31;97302.63;;;24.76;17.03
34370;BME280;20635;55.812;37.560;2023-02-21T13:26:43;97317.75;;;24.72;17.06
34370;BME280;20635;55.812;37.560;2023-02-21T13:29:20;97310.13;;;24.69;16.82
34370;BME280;20635;55.812;37.560;2023-02-21T13:31:58;97312.88;;;24.65;16.87
34370;BME280;20635;55.812;37.560;2023-02-21T13:34:28;97320.88;;;24.63;17.03
34370;BME280;20635;55.812;37.560;2023-02-21T13:37:00;97322.88;;;24.63;17.12
34370;BME280;20635;55.812;37.560;2023-02-21T13:39:29;97316.03;;;24.60;17.17
34370;BME280;20635;55.812;37.560;2023-02-21T13:42:10;97333.63;;;24.61;17.18
34370;BME280;20635;55.812;37.560;2023-02-21T13:45:27;97344.41;;;24.59;17.01
34370;BME280;20635;55.812;37.560;2023-02-21T13:53:25;97341.56;;;24.55;16.87
34370;BME280;20635;55.812;37.560;2023-02-21T13:58:42;97356.69;;;24.47;17.04
34370;BME280;20635;55.812;37.560;2023-02-21T14:07:04;97380.56;;;24.37;17.09
34370;BME280;20635;55.812;37.560;2023-02-21T14:09:34;97370.91;;;24.35;17.13
34370;BME280;20635;55.812;37.560;2023-02-21T14:12:03;97379.25;;;24.31;17.11
34370;BME280;20635;55.812;37.560;2023-02-21T14:14:37;97394.06;;;24.32;17.21
34370;BME280;20635;55.812;37.560;2023-02-21T14:17:07;97392.38;;;24.27;17.02
34370;BME280;20635;55.812;37.560;2023-02-21T14:19:47;97386.78;;;24.27;17.06
34370;BME280;20635;55.812;37.560;2023-02-21T14:22:27;97400.34;;;24.25;16.87
34370;BME280;20635;55.812;37.560;2023-02-21T14:25:12;97397.53;;;24.21;16.91
34370;BME280;20635;55.812;37.560;2023-02-21T14:27:40;97395.03;;;24.16;16.89
34370;BME280;20635;55.812;37.560;2023-02-21T14:32:46;97421.00;;;24.13;16.89
34370;BME280;20635;55.812;37.560;2023-02-21T14:35:34;97431.38;;;24.13;17.10
34370;BME280;20635;55.812;37.560;2023-02-21T14:38:25;97433.72;;;24.11;16.81
34370;BME280;20635;55.812;37.560;2023-02-21T14:43:49;97439.97;;;24.00;16.93
34370;BME280;20635;55.812;37.560;2023-02-21T14:55:20;97457.47;;;23.94;17.27
34370;BME280;20635;55.812;37.560;2023-02-21T14:58:00;97465.34;;;23.88;17.14
34370;BME280;20635;55.812;37.560;2023-02-21T15:04:03;97475.31;;;23.86;17.17
34370;BME280;20635;55.812;37.560;2023-02-21T15:06:35;97476.78;;;23.79;17.52
34370;BME280;20635;55.812;37.560;2023-02-21T15:09:11;97487.97;;;23.79;17.58
34370;BME280;20635;55.812;37.560;2023-02-21T15:11:38;97494.69;;;23.75;17.37
34370;BME280;20635;55.812;37.560;2023-02-21T15:14:21;97489.94;;;23.75;17.59
34370;BME280;20635;55.812;37.560;2023-02-21T15:16:52;97497.47;;;23.71;17.29
34370;BME280;20635;55.812;37.560;2023-02-21T15:19:27;97501.00;;;23.68;17.54
34370;BME280;20635;55.812;37.560;2023-02-21T15:22:21;97505.84;;;23.71;17.64
34370;BME280;20635;55.812;37.560;2023-02-21T15:27:36;97515.25;;;23.63;17.37